createdAt,value
2023-05-12T00:03:34.000Z,10.93
2023-05-12T00:08:27.000Z,10.9
2023-05-12T00:13:22.000Z,10.91
2023-05-12T00:18:15.000Z,10.93
2023-05-12T00:23:09.000Z,10.95
2023-05-12T00:28:03.000Z,10.96
2023-05-12T00:32:57.000Z,10.96
2023-05-12T00:37:51.000Z,11.01
2023-05-12T00:42:46.000Z,10.99
2023-05-12T00:47:37.000Z,11.05
2023-05-12T00:52:30.000Z,11.02
2023-05-12T00:57:25.000Z,10.94
2023-05-12T01:02:19.000Z,10.91
2023-05-12T01:07:12.000Z,10.88
2023-05-12T01:12:07.000Z,10.87
2023-05-12T01:17:01.000Z,10.91
2023-05-12T01:21:55.000Z,10.86
2023-05-12T01:26:49.000Z,10.93
2023-05-12T01:31:43.000Z,10.98
2023-05-12T01:36:37.000Z,10.97
2023-05-12T01:41:30.000Z,10.97
2023-05-12T01:46:24.000Z,11.06
2023-05-12T01:51:18.000Z,11.02
2023-05-12T01:56:12.000Z,11.04
2023-05-12T02:01:07.000Z,11.06
2023-05-12T02:06:01.000Z,10.92
2023-05-12T02:10:55.000Z,10.84
2023-05-12T02:15:49.000Z,10.9
2023-05-12T02:20:46.000Z,10.88
2023-05-12T02:25:35.000Z,11.04
2023-05-12T02:30:29.000Z,11.06
2023-05-12T02:35:24.000Z,11.02
2023-05-12T02:40:19.000Z,11.03
2023-05-12T02:45:13.000Z,10.94
2023-05-12T02:50:07.000Z,10.86
2023-05-12T02:55:01.000Z,10.87
2023-05-12T02:59:56.000Z,10.81
2023-05-12T03:04:49.000Z,10.85
2023-05-12T03:09:43.000Z,10.73
2023-05-12T03:14:37.000Z,10.8
2023-05-12T03:19:32.000Z,10.77
2023-05-12T03:24:25.000Z,10.75
2023-05-12T03:29:19.000Z,10.76
2023-05-12T03:34:13.000Z,10.75
2023-05-12T03:39:07.000Z,10.75
2023-05-12T03:44:02.000Z,10.72
2023-05-12T03:48:56.000Z,10.77
2023-05-12T03:53:50.000Z,10.77
2023-05-12T03:58:44.000Z,10.77
2023-05-12T04:03:38.000Z,10.76
2023-05-12T04:08:32.000Z,10.77
2023-05-12T04:13:25.000Z,10.74
2023-05-12T04:18:20.000Z,10.69
2023-05-12T04:23:14.000Z,10.76
2023-05-12T04:28:08.000Z,10.76
2023-05-12T04:33:02.000Z,10.76
2023-05-12T04:37:56.000Z,10.75
2023-05-12T04:42:50.000Z,10.81
2023-05-12T04:47:47.000Z,10.88
2023-05-12T04:52:35.000Z,10.89
2023-05-12T04:57:30.000Z,10.92
2023-05-12T05:02:24.000Z,10.92
2023-05-12T05:07:18.000Z,11.01
2023-05-12T05:12:12.000Z,11.27
2023-05-12T05:17:06.000Z,11.39
2023-05-12T05:22:02.000Z,11.66
2023-05-12T05:26:55.000Z,11.62
2023-05-12T05:31:48.000Z,11.6
2023-05-12T05:36:42.000Z,11.61
2023-05-12T05:41:35.000Z,11.75
2023-05-12T05:46:27.000Z,11.86
2023-05-12T05:51:22.000Z,11.97
2023-05-12T05:56:16.000Z,12.04
2023-05-12T06:01:10.000Z,12.09
2023-05-12T06:06:05.000Z,12.06
2023-05-12T06:10:58.000Z,12.11
2023-05-12T06:15:53.000Z,12.22
2023-05-12T06:20:47.000Z,12.58
2023-05-12T06:25:40.000Z,12.59
2023-05-12T06:30:34.000Z,12.81
2023-05-12T06:35:28.000Z,13.06
2023-05-12T06:40:25.000Z,13.07
2023-05-12T06:45:17.000Z,12.57
2023-05-12T06:50:11.000Z,12.25
2023-05-12T06:55:04.000Z,12.18
2023-05-12T06:59:56.000Z,12.14
2023-05-12T07:04:50.000Z,12.04
2023-05-12T07:09:44.000Z,12.42
2023-05-12T07:14:38.000Z,12.98
2023-05-12T07:19:32.000Z,12.91
2023-05-12T07:24:26.000Z,12.87
2023-05-12T07:29:21.000Z,13.38
2023-05-12T07:34:15.000Z,13.79
2023-05-12T07:39:09.000Z,13.75
2023-05-12T07:44:04.000Z,13.59
2023-05-12T07:48:57.000Z,13.37
2023-05-12T07:53:51.000Z,14.48
2023-05-12T07:58:46.000Z,15.38
2023-05-12T08:03:41.000Z,15.83
2023-05-12T08:08:35.000Z,15.43
2023-05-12T08:13:29.000Z,15.03
2023-05-12T08:18:24.000Z,15.46
2023-05-12T08:23:18.000Z,15.7
2023-05-12T08:28:13.000Z,15.66
2023-05-12T08:33:06.000Z,15.84
2023-05-12T08:38:00.000Z,15.09
2023-05-12T08:42:54.000Z,14.76
2023-05-12T08:47:48.000Z,14.89
2023-05-12T08:52:42.000Z,15.83
2023-05-12T08:57:36.000Z,15.67
2023-05-12T09:02:30.000Z,16.39
2023-05-12T09:07:25.000Z,17.72
2023-05-12T09:12:20.000Z,17.47
2023-05-12T09:17:14.000Z,16.21
2023-05-12T09:22:08.000Z,16.15
2023-05-12T09:27:02.000Z,16.76
2023-05-12T09:31:56.000Z,17.39
2023-05-12T09:36:50.000Z,18.16
2023-05-12T09:41:45.000Z,17.82
2023-05-12T09:46:39.000Z,17.94
2023-05-12T09:51:34.000Z,18.5
2023-05-12T09:56:29.000Z,18.62
2023-05-12T10:01:22.000Z,21.61
2023-05-12T10:06:18.000Z,21.15
2023-05-12T10:11:13.000Z,22.21
2023-05-12T10:16:08.000Z,24.19
2023-05-12T10:21:03.000Z,20.31
2023-05-12T10:25:56.000Z,18.8
2023-05-12T10:30:49.000Z,18.87
2023-05-12T10:35:42.000Z,19.27
2023-05-12T10:40:36.000Z,19.68
2023-05-12T10:45:30.000Z,19.29
2023-05-12T10:50:24.000Z,19.1
2023-05-12T10:55:18.000Z,19.06
2023-05-12T11:00:12.000Z,18.31
2023-05-12T11:09:56.000Z,17.55
2023-05-12T11:14:50.000Z,17.68
2023-05-12T11:19:44.000Z,17.73
2023-05-12T11:24:38.000Z,17
2023-05-12T11:29:31.000Z,16.48
2023-05-12T11:34:25.000Z,16.21
2023-05-12T11:39:19.000Z,16.2
2023-05-12T11:44:13.000Z,16.41
2023-05-12T11:49:07.000Z,17.32
2023-05-12T11:54:01.000Z,18.72
2023-05-12T11:58:56.000Z,21.56
2023-05-12T12:03:52.000Z,19.61
2023-05-12T12:08:46.000Z,17.75
2023-05-12T12:13:39.000Z,17.09
2023-05-12T12:18:32.000Z,16.39
2023-05-12T12:23:23.000Z,15.81
2023-05-12T12:28:17.000Z,15.66
2023-05-12T12:33:10.000Z,16.12
2023-05-12T12:38:03.000Z,16.69
2023-05-12T12:42:58.000Z,16.65
2023-05-12T12:47:52.000Z,16.61
2023-05-12T12:52:46.000Z,17.04
2023-05-12T12:57:41.000Z,18.55
2023-05-12T13:02:35.000Z,17.99
2023-05-12T13:07:30.000Z,18.84
2023-05-12T13:12:24.000Z,17.96
2023-05-12T13:17:18.000Z,17.27
2023-05-12T13:22:10.000Z,16.68
2023-05-12T13:27:04.000Z,16.93
2023-05-12T13:31:56.000Z,16.76
2023-05-12T13:36:51.000Z,16.76
2023-05-12T13:41:45.000Z,16.98
2023-05-12T13:46:38.000Z,17.41
2023-05-12T13:51:32.000Z,17.54
2023-05-12T13:56:26.000Z,17.61
2023-05-12T14:01:21.000Z,18.2
2023-05-12T14:06:15.000Z,18.36
2023-05-12T14:11:10.000Z,18.77
2023-05-12T14:16:05.000Z,19.19
2023-05-12T14:20:59.000Z,19.75
2023-05-12T14:25:54.000Z,19.88
2023-05-12T14:30:48.000Z,19.31
2023-05-12T14:35:41.000Z,18.86
2023-05-12T14:40:35.000Z,19.02
2023-05-12T14:45:29.000Z,19.4
2023-05-12T14:50:24.000Z,19.79
2023-05-12T14:55:18.000Z,20.32
2023-05-12T15:00:12.000Z,19.79
2023-05-12T15:05:06.000Z,19.4
2023-05-12T15:10:00.000Z,19.56
2023-05-12T15:14:54.000Z,19.16
2023-05-12T15:19:48.000Z,20.28
2023-05-12T15:24:43.000Z,20.84
2023-05-12T15:29:37.000Z,20.19
2023-05-12T15:34:30.000Z,19.64
2023-05-12T15:39:24.000Z,19.47
2023-05-12T15:44:18.000Z,19.16
2023-05-12T15:49:12.000Z,18.64
2023-05-12T15:54:06.000Z,18.08
2023-05-12T15:58:59.000Z,17.04
2023-05-12T16:03:53.000Z,15.9
2023-05-12T16:08:46.000Z,15.51
2023-05-12T16:13:38.000Z,15
2023-05-12T16:18:32.000Z,14.46
2023-05-12T16:23:25.000Z,14.12
2023-05-12T16:28:19.000Z,13.82
2023-05-12T16:33:13.000Z,13.69
2023-05-12T16:38:07.000Z,13.37
2023-05-12T16:43:01.000Z,13.35
2023-05-12T16:47:55.000Z,13.59
2023-05-12T16:52:49.000Z,13.8
2023-05-12T16:57:43.000Z,13.77
2023-05-12T17:02:35.000Z,13.54
2023-05-12T17:07:27.000Z,13.29
2023-05-12T17:12:21.000Z,13.24
2023-05-12T17:17:15.000Z,13.14
2023-05-12T17:22:09.000Z,13.2
2023-05-12T17:27:03.000Z,13.26
2023-05-12T17:31:57.000Z,13.32
2023-05-12T17:36:52.000Z,13.01
2023-05-12T17:41:46.000Z,13.09
2023-05-12T17:46:41.000Z,12.98
2023-05-12T17:51:34.000Z,13.05
2023-05-12T17:56:28.000Z,13.23
2023-05-12T18:01:23.000Z,13.26
2023-05-12T18:06:17.000Z,13.03
2023-05-12T18:11:11.000Z,13.07
2023-05-12T18:16:05.000Z,13.01
2023-05-12T18:21:00.000Z,13
2023-05-12T18:25:56.000Z,12.94
2023-05-12T18:30:49.000Z,12.95
2023-05-12T18:35:43.000Z,12.76
2023-05-12T18:40:37.000Z,12.63
2023-05-12T18:45:31.000Z,12.67
2023-05-12T18:50:25.000Z,12.54
2023-05-12T18:55:19.000Z,12.46
2023-05-12T19:00:14.000Z,12.39
2023-05-12T19:05:07.000Z,12.37
2023-05-12T19:10:01.000Z,12.24
2023-05-12T19:14:54.000Z,12.2
2023-05-12T19:19:48.000Z,12.23
2023-05-12T19:24:41.000Z,12.14
2023-05-12T19:29:36.000Z,12.2
2023-05-12T19:34:29.000Z,12.13
2023-05-12T19:39:24.000Z,12.05
2023-05-12T19:44:18.000Z,11.99
2023-05-12T19:49:12.000Z,11.95
2023-05-12T19:54:07.000Z,11.82
2023-05-12T19:59:00.000Z,11.79
2023-05-12T20:03:55.000Z,11.66
2023-05-12T20:08:49.000Z,11.6
2023-05-12T20:13:43.000Z,11.57
2023-05-12T20:18:37.000Z,11.52
2023-05-12T20:23:31.000Z,11.5
2023-05-12T20:28:26.000Z,11.5
2023-05-12T20:33:20.000Z,11.45
2023-05-12T20:38:14.000Z,11.41
2023-05-12T20:43:09.000Z,11.35
2023-05-12T20:48:03.000Z,11.26
2023-05-12T20:52:57.000Z,11.22
2023-05-12T20:57:51.000Z,11.22
2023-05-12T21:02:45.000Z,11.21
2023-05-12T21:07:39.000Z,11.19
2023-05-12T21:12:33.000Z,11.13
2023-05-12T21:17:27.000Z,11.1
2023-05-12T21:22:22.000Z,11.09
2023-05-12T21:27:16.000Z,11
2023-05-12T21:32:10.000Z,10.91
2023-05-12T21:37:05.000Z,10.9
2023-05-12T21:41:58.000Z,10.9
2023-05-12T21:46:53.000Z,10.84
2023-05-12T21:51:47.000Z,10.79
2023-05-12T21:56:41.000Z,10.81
2023-05-12T22:01:34.000Z,10.74
2023-05-12T22:06:28.000Z,10.6
2023-05-12T22:11:23.000Z,10.48
2023-05-12T22:16:17.000Z,10.44
2023-05-12T22:21:11.000Z,10.33
2023-05-12T22:26:05.000Z,10.21
2023-05-12T22:31:00.000Z,10.07
2023-05-12T22:35:54.000Z,9.96
2023-05-12T22:40:49.000Z,9.9
2023-05-12T22:45:43.000Z,9.83
2023-05-12T22:50:38.000Z,9.74
2023-05-12T22:55:32.000Z,9.67
2023-05-12T23:00:25.000Z,9.56
2023-05-12T23:05:19.000Z,9.6
2023-05-12T23:10:14.000Z,9.44
2023-05-12T23:15:08.000Z,9.41
2023-05-12T23:20:02.000Z,9.3
2023-05-12T23:24:57.000Z,9.2
2023-05-12T23:29:51.000Z,9.18
2023-05-12T23:34:45.000Z,9.18
2023-05-12T23:39:39.000Z,9.16
2023-05-12T23:44:33.000Z,9.18
2023-05-12T23:49:25.000Z,9.26
2023-05-12T23:54:19.000Z,9.18
2023-05-12T23:59:14.000Z,9.06
